sensor_id;sensor_type;location;lat;lon;timestamp;temperature;humidity
31639;DHT22;18248;51.522;7.020;2022-08-19T00:01:36;20.50;99.90
31639;DHT22;18248;51.522;7.020;2022-08-19T00:04:35;20.50;99.90
31639;DHT22;18248;51.522;7.020;2022-08-19T00:07:34;20.50;99.90
31639;DHT22;18248;51.522;7.020;2022-08-19T00:10:33;20.50;99.90
31639;DHT22;18248;51.522;7.020;2022-08-19T00:13:32;20.40;99.90
31639;DHT22;18248;51.522;7.020;2022-08-19T00:16:31;20.40;99.90
31639;DHT22;18248;51.522;7.020;2022-08-19T00:19:30;20.40;99.90
31639;DHT22;18248;51.522;7.020;2022-08-19T00:22:29;20.30;99.90
31639;DHT22;18248;51.522;7.020;2022-08-19T00:25:27;20.30;99.90
31639;DHT22;18248;51.522;7.020;2022-08-19T00:28:26;20.30;99.90
31639;DHT22;18248;51.522;7.020;2022-08-19T00:31:25;20.20;99.90
31639;DHT22;18248;51.522;7.020;2022-08-19T00:34:24;20.30;99.90
31639;DHT22;18248;51.522;7.020;2022-08-19T00:37:24;20.20;99.90
31639;DHT22;18248;51.522;7.020;2022-08-19T00:40:25;20.20;99.90
31639;DHT22;18248;51.522;7.020;2022-08-19T00:43:26;20.20;99.90
31639;DHT22;18248;51.522;7.020;2022-08-19T00:46:26;20.10;99.90
31639;DHT22;18248;51.522;7.020;2022-08-19T00:49:41;20.10;99.90
31639;DHT22;18248;51.522;7.020;2022-08-19T00:52:45;20.00;99.90
31639;DHT22;18248;51.522;7.020;2022-08-19T00:55:48;20.00;99.90
31639;DHT22;18248;51.522;7.020;2022-08-19T00:58:48;19.90;99.90
31639;DHT22;18248;51.522;7.020;2022-08-19T01:01:47;20.00;99.90
31639;DHT22;18248;51.522;7.020;2022-08-19T01:04:46;19.90;99.90
31639;DHT22;18248;51.522;7.020;2022-08-19T01:07:45;19.90;99.90
31639;DHT22;18248;51.522;7.020;2022-08-19T01:10:47;19.90;99.90
31639;DHT22;18248;51.522;7.020;2022-08-19T01:13:47;19.90;99.90
31639;DHT22;18248;51.522;7.020;2022-08-19T01:16:46;19.80;99.90
31639;DHT22;18248;51.522;7.020;2022-08-19T01:19:45;19.80;99.90
31639;DHT22;18248;51.522;7.020;2022-08-19T01:22:48;19.80;99.90
31639;DHT22;18248;51.522;7.020;2022-08-19T01:25:50;19.70;99.90
31639;DHT22;18248;51.522;7.020;2022-08-19T01:28:51;19.70;99.90
31639;DHT22;18248;51.522;7.020;2022-08-19T01:31:52;19.60;99.90
31639;DHT22;18248;51.522;7.020;2022-08-19T01:34:51;19.60;99.90
31639;DHT22;18248;51.522;7.020;2022-08-19T01:37:56;19.60;99.90
31639;DHT22;18248;51.522;7.020;2022-08-19T01:40:56;19.60;99.90
31639;DHT22;18248;51.522;7.020;2022-08-19T01:43:55;19.70;99.90
31639;DHT22;18248;51.522;7.020;2022-08-19T01:46:54;19.70;99.90
31639;DHT22;18248;51.522;7.020;2022-08-19T01:49:53;19.70;99.90
31639;DHT22;18248;51.522;7.020;2022-08-19T01:52:52;19.60;99.90
31639;DHT22;18248;51.522;7.020;2022-08-19T01:55:51;19.60;99.90
31639;DHT22;18248;51.522;7.020;2022-08-19T01:58:54;19.60;99.90
31639;DHT22;18248;51.522;7.020;2022-08-19T02:01:53;19.60;99.90
31639;DHT22;18248;51.522;7.020;2022-08-19T02:04:52;19.50;99.90
31639;DHT22;18248;51.522;7.020;2022-08-19T02:07:51;19.50;99.90
31639;DHT22;18248;51.522;7.020;2022-08-19T02:10:50;19.50;99.90
31639;DHT22;18248;51.522;7.020;2022-08-19T02:13:49;19.50;99.90
31639;DHT22;18248;51.522;7.020;2022-08-19T02:16:48;19.40;99.90
31639;DHT22;18248;51.522;7.020;2022-08-19T02:19:46;19.40;99.90
31639;DHT22;18248;51.522;7.020;2022-08-19T02:22:46;19.30;99.90
31639;DHT22;18248;51.522;7.020;2022-08-19T02:25:46;19.30;99.90
31639;DHT22;18248;51.522;7.020;2022-08-19T02:28:45;19.30;99.90
31639;DHT22;18248;51.522;7.020;2022-08-19T02:31:44;19.30;99.90
31639;DHT22;18248;51.522;7.020;2022-08-19T02:34:42;19.30;99.90
31639;DHT22;18248;51.522;7.020;2022-08-19T02:37:42;19.30;99.90
31639;DHT22;18248;51.522;7.020;2022-08-19T02:41:06;19.30;99.90
31639;DHT22;18248;51.522;7.020;2022-08-19T02:44:08;19.30;99.90
31639;DHT22;18248;51.522;7.020;2022-08-19T02:47:07;19.30;99.90
31639;DHT22;18248;51.522;7.020;2022-08-19T02:50:06;19.30;99.90
31639;DHT22;18248;51.522;7.020;2022-08-19T02:53:05;19.30;99.90
31639;DHT22;18248;51.522;7.020;2022-08-19T02:56:07;19.20;99.90
31639;DHT22;18248;51.522;7.020;2022-08-19T02:59:07;19.10;99.90
31639;DHT22;18248;51.522;7.020;2022-08-19T03:02:09;19.10;99.90
31639;DHT22;18248;51.522;7.020;2022-08-19T03:05:08;19.10;99.90
31639;DHT22;18248;51.522;7.020;2022-08-19T03:08:09;19.10;99.90
31639;DHT22;18248;51.522;7.020;2022-08-19T03:11:27;19.00;99.90
31639;DHT22;18248;51.522;7.020;2022-08-19T03:14:26;18.90;99.90
31639;DHT22;18248;51.522;7.020;2022-08-19T03:17:26;18.90;99.90
31639;DHT22;18248;51.522;7.020;2022-08-19T03:20:24;19.00;99.90
31639;DHT22;18248;51.522;7.020;2022-08-19T03:23:24;19.00;99.90
31639;DHT22;18248;51.522;7.020;2022-08-19T03:26:23;19.00;99.90
31639;DHT22;18248;51.522;7.020;2022-08-19T03:29:21;19.00;99.90
31639;DHT22;18248;51.522;7.020;2022-08-19T03:32:20;18.90;99.90
31639;DHT22;18248;51.522;7.020;2022-08-19T03:35:20;19.00;99.90
31639;DHT22;18248;51.522;7.020;2022-08-19T03:38:18;19.00;99.90
31639;DHT22;18248;51.522;7.020;2022-08-19T03:41:23;18.90;99.90
31639;DHT22;18248;51.522;7.020;2022-08-19T03:44:23;19.00;99.90
31639;DHT22;18248;51.522;7.020;2022-08-19T03:47:21;19.00;99.90
31639;DHT22;18248;51.522;7.020;2022-08-19T03:50:20;19.00;99.90
31639;DHT22;18248;51.522;7.020;2022-08-19T03:53:20;19.00;99.90
31639;DHT22;18248;51.522;7.020;2022-08-19T03:56:19;19.00;99.90
31639;DHT22;18248;51.522;7.020;2022-08-19T03:59:27;19.00;99.90
31639;DHT22;18248;51.522;7.020;2022-08-19T04:02:26;18.90;99.90
31639;DHT22;18248;51.522;7.020;2022-08-19T04:05:27;18.90;99.90
31639;DHT22;18248;51.522;7.020;2022-08-19T04:08:26;18.90;99.90
31639;DHT22;18248;51.522;7.020;2022-08-19T04:11:27;18.90;99.90
31639;DHT22;18248;51.522;7.020;2022-08-19T04:14:29;18.90;99.90
31639;DHT22;18248;51.522;7.020;2022-08-19T04:17:32;18.90;99.90
31639;DHT22;18248;51.522;7.020;2022-08-19T04:20:31;18.90;99.90
31639;DHT22;18248;51.522;7.020;2022-08-19T04:23:30;18.90;99.90
31639;DHT22;18248;51.522;7.020;2022-08-19T04:26:32;19.00;99.90
31639;DHT22;18248;51.522;7.020;2022-08-19T04:29:31;18.90;99.90
31639;DHT22;18248;51.522;7.020;2022-08-19T04:32:30;18.90;99.90
31639;DHT22;18248;51.522;7.020;2022-08-19T04:35:35;18.90;99.90
31639;DHT22;18248;51.522;7.020;2022-08-19T04:38:36;18.90;99.90
31639;DHT22;18248;51.522;7.020;2022-08-19T04:41:35;18.90;99.90
31639;DHT22;18248;51.522;7.020;2022-08-19T04:44:53;18.90;99.90
31639;DHT22;18248;51.522;7.020;2022-08-19T04:47:55;18.80;99.90
31639;DHT22;18248;51.522;7.020;2022-08-19T04:50:57;18.80;99.90
31639;DHT22;18248;51.522;7.020;2022-08-19T04:53:57;18.80;99.90
31639;DHT22;18248;51.522;7.020;2022-08-19T04:56:55;18.80;99.90
31639;DHT22;18248;51.522;7.020;2022-08-19T04:59:55;18.90;99.90
31639;DHT22;18248;51.522;7.020;2022-08-19T05:02:54;18.90;99.90
31639;DHT22;18248;51.522;7.020;2022-08-19T05:05:52;19.00;99.90
31639;DHT22;18248;51.522;7.020;2022-08-19T05:08:52;19.10;99.90
31639;DHT22;18248;51.522;7.020;2022-08-19T05:11:51;19.10;99.90
31639;DHT22;18248;51.522;7.020;2022-08-19T05:14:51;19.10;99.90
31639;DHT22;18248;51.522;7.020;2022-08-19T05:17:50;19.10;99.90
31639;DHT22;18248;51.522;7.020;2022-08-19T05:21:13;19.10;99.90
31639;DHT22;18248;51.522;7.020;2022-08-19T05:24:31;19.20;99.90
31639;DHT22;18248;51.522;7.020;2022-08-19T05:27:32;19.30;99.90
31639;DHT22;18248;51.522;7.020;2022-08-19T05:30:31;19.40;99.90
31639;DHT22;18248;51.522;7.020;2022-08-19T05:33:30;19.40;99.90
31639;DHT22;18248;51.522;7.020;2022-08-19T05:36:37;19.50;99.90
31639;DHT22;18248;51.522;7.020;2022-08-19T05:39:37;19.60;99.90
31639;DHT22;18248;51.522;7.020;2022-08-19T05:42:36;19.70;99.90
31639;DHT22;18248;51.522;7.020;2022-08-19T05:45:40;19.70;99.90
31639;DHT22;18248;51.522;7.020;2022-08-19T05:48:38;19.90;99.90
31639;DHT22;18248;51.522;7.020;2022-08-19T05:51:37;19.90;99.90
31639;DHT22;18248;51.522;7.020;2022-08-19T05:54:41;20.00;99.90
31639;DHT22;18248;51.522;7.020;2022-08-19T05:57:42;20.10;99.90
31639;DHT22;18248;51.522;7.020;2022-08-19T06:00:43;20.10;99.90
31639;DHT22;18248;51.522;7.020;2022-08-19T06:03:42;20.20;99.90
31639;DHT22;18248;51.522;7.020;2022-08-19T06:06:40;20.30;99.90
31639;DHT22;18248;51.522;7.020;2022-08-19T06:09:40;20.40;99.90
31639;DHT22;18248;51.522;7.020;2022-08-19T06:12:39;20.50;99.90
31639;DHT22;18248;51.522;7.020;2022-08-19T06:15:37;20.60;99.90
31639;DHT22;18248;51.522;7.020;2022-08-19T06:18:36;20.70;99.90
31639;DHT22;18248;51.522;7.020;2022-08-19T06:21:37;20.80;99.90
31639;DHT22;18248;51.522;7.020;2022-08-19T06:24:36;21.00;99.90
31639;DHT22;18248;51.522;7.020;2022-08-19T06:27:35;21.10;99.90
31639;DHT22;18248;51.522;7.020;2022-08-19T06:30:35;21.30;99.90
31639;DHT22;18248;51.522;7.020;2022-08-19T06:33:35;22.20;99.90
31639;DHT22;18248;51.522;7.020;2022-08-19T06:36:38;22.70;99.90
31639;DHT22;18248;51.522;7.020;2022-08-19T06:39:40;23.10;99.90
31639;DHT22;18248;51.522;7.020;2022-08-19T06:42:39;22.90;99.90
31639;DHT22;18248;51.522;7.020;2022-08-19T06:45:37;22.80;99.90
31639;DHT22;18248;51.522;7.020;2022-08-19T06:48:37;22.80;99.90
31639;DHT22;18248;51.522;7.020;2022-08-19T06:51:35;22.90;99.90
31639;DHT22;18248;51.522;7.020;2022-08-19T06:54:34;23.20;99.90
31639;DHT22;18248;51.522;7.020;2022-08-19T06:57:34;23.40;99.90
31639;DHT22;18248;51.522;7.020;2022-08-19T07:00:33;23.50;99.90
31639;DHT22;18248;51.522;7.020;2022-08-19T07:03:34;23.90;99.90
31639;DHT22;18248;51.522;7.020;2022-08-19T07:06:33;24.80;99.90
31639;DHT22;18248;51.522;7.020;2022-08-19T07:09:32;26.10;99.90
31639;DHT22;18248;51.522;7.020;2022-08-19T07:12:31;27.00;99.90
31639;DHT22;18248;51.522;7.020;2022-08-19T07:15:33;27.70;99.90
31639;DHT22;18248;51.522;7.020;2022-08-19T07:18:31;28.20;99.90
31639;DHT22;18248;51.522;7.020;2022-08-19T07:21:31;28.80;99.90
31639;DHT22;18248;51.522;7.020;2022-08-19T07:24:31;29.20;99.90
31639;DHT22;18248;51.522;7.020;2022-08-19T07:27:29;29.70;99.90
31639;DHT22;18248;51.522;7.020;2022-08-19T07:30:28;30.10;99.90
31639;DHT22;18248;51.522;7.020;2022-08-19T07:33:27;30.10;99.90
31639;DHT22;18248;51.522;7.020;2022-08-19T07:36:27;30.00;99.90
31639;DHT22;18248;51.522;7.020;2022-08-19T07:39:33;29.80;99.90
31639;DHT22;18248;51.522;7.020;2022-08-19T07:42:31;30.10;99.90
31639;DHT22;18248;51.522;7.020;2022-08-19T07:45:30;30.30;99.90
31639;DHT22;18248;51.522;7.020;2022-08-19T07:48:30;30.20;99.90
31639;DHT22;18248;51.522;7.020;2022-08-19T07:51:29;29.90;99.90
31639;DHT22;18248;51.522;7.020;2022-08-19T07:54:31;29.50;99.90
31639;DHT22;18248;51.522;7.020;2022-08-19T07:57:29;29.30;99.90
31639;DHT22;18248;51.522;7.020;2022-08-19T08:00:28;29.10;99.90
31639;DHT22;18248;51.522;7.020;2022-08-19T08:03:27;29.10;99.90
31639;DHT22;18248;51.522;7.020;2022-08-19T08:06:44;29.50;99.90
31639;DHT22;18248;51.522;7.020;2022-08-19T08:10:04;29.90;99.90
31639;DHT22;18248;51.522;7.020;2022-08-19T08:13:03;30.50;99.90
31639;DHT22;18248;51.522;7.020;2022-08-19T08:16:04;30.50;99.90
31639;DHT22;18248;51.522;7.020;2022-08-19T08:19:06;30.70;99.90
31639;DHT22;18248;51.522;7.020;2022-08-19T08:22:05;30.70;99.90
31639;DHT22;18248;51.522;7.020;2022-08-19T08:25:11;30.80;99.90
31639;DHT22;18248;51.522;7.020;2022-08-19T08:28:10;31.00;99.90
31639;DHT22;18248;51.522;7.020;2022-08-19T08:31:10;31.60;99.90
31639;DHT22;18248;51.522;7.020;2022-08-19T08:34:09;31.80;99.90
31639;DHT22;18248;51.522;7.020;2022-08-19T08:37:08;31.30;99.90
31639;DHT22;18248;51.522;7.020;2022-08-19T08:43:33;30.80;99.90
31639;DHT22;18248;51.522;7.020;2022-08-19T08:46:37;31.00;99.90
31639;DHT22;18248;51.522;7.020;2022-08-19T08:52:48;30.10;99.90
31639;DHT22;18248;51.522;7.020;2022-08-19T08:55:49;29.80;99.90
31639;DHT22;18248;51.522;7.020;2022-08-19T08:58:57;29.60;99.90
31639;DHT22;18248;51.522;7.020;2022-08-19T09:01:56;29.30;99.90
31639;DHT22;18248;51.522;7.020;2022-08-19T09:04:55;29.00;99.90
31639;DHT22;18248;51.522;7.020;2022-08-19T09:08:08;29.00;99.90
31639;DHT22;18248;51.522;7.020;2022-08-19T09:11:19;28.90;99.90
31639;DHT22;18248;51.522;7.020;2022-08-19T09:17:43;28.40;99.90
31639;DHT22;18248;51.522;7.020;2022-08-19T09:20:44;28.10;99.90
31639;DHT22;18248;51.522;7.020;2022-08-19T09:23:44;27.80;99.90
31639;DHT22;18248;51.522;7.020;2022-08-19T09:26:43;27.60;99.90
31639;DHT22;18248;51.522;7.020;2022-08-19T09:29:42;27.70;99.90
31639;DHT22;18248;51.522;7.020;2022-08-19T09:32:40;27.70;99.90
31639;DHT22;18248;51.522;7.020;2022-08-19T09:35:40;27.60;99.90
31639;DHT22;18248;51.522;7.020;2022-08-19T09:38:40;27.40;99.90
31639;DHT22;18248;51.522;7.020;2022-08-19T09:41:39;27.40;99.90
31639;DHT22;18248;51.522;7.020;2022-08-19T09:44:39;27.40;99.90
31639;DHT22;18248;51.522;7.020;2022-08-19T09:47:38;27.40;99.90
31639;DHT22;18248;51.522;7.020;2022-08-19T09:50:37;27.40;99.90
31639;DHT22;18248;51.522;7.020;2022-08-19T09:53:37;27.40;99.90
31639;DHT22;18248;51.522;7.020;2022-08-19T09:56:36;27.40;99.90
31639;DHT22;18248;51.522;7.020;2022-08-19T09:59:35;27.60;99.90
31639;DHT22;18248;51.522;7.020;2022-08-19T10:02:34;27.60;99.90
31639;DHT22;18248;51.522;7.020;2022-08-19T10:05:33;27.60;99.90
31639;DHT22;18248;51.522;7.020;2022-08-19T10:08:48;27.60;99.90
31639;DHT22;18248;51.522;7.020;2022-08-19T10:11:47;27.60;99.90
31639;DHT22;18248;51.522;7.020;2022-08-19T10:14:46;27.80;99.90
31639;DHT22;18248;51.522;7.020;2022-08-19T10:17:44;28.00;99.90
31639;DHT22;18248;51.522;7.020;2022-08-19T10:20:45;28.20;99.90
31639;DHT22;18248;51.522;7.020;2022-08-19T10:23:46;28.30;99.90
31639;DHT22;18248;51.522;7.020;2022-08-19T10:26:45;28.40;99.90
31639;DHT22;18248;51.522;7.020;2022-08-19T10:29:47;28.50;99.90
31639;DHT22;18248;51.522;7.020;2022-08-19T10:32:46;28.50;99.90
31639;DHT22;18248;51.522;7.020;2022-08-19T10:35:44;28.40;99.90
31639;DHT22;18248;51.522;7.020;2022-08-19T10:38:50;28.40;99.90
31639;DHT22;18248;51.522;7.020;2022-08-19T10:41:50;28.50;99.90
31639;DHT22;18248;51.522;7.020;2022-08-19T10:44:48;28.50;99.90
31639;DHT22;18248;51.522;7.020;2022-08-19T10:47:47;28.40;99.90
31639;DHT22;18248;51.522;7.020;2022-08-19T10:50:45;28.30;99.90
31639;DHT22;18248;51.522;7.020;2022-08-19T10:54:03;28.20;99.90
31639;DHT22;18248;51.522;7.020;2022-08-19T10:57:01;28.10;99.90
31639;DHT22;18248;51.522;7.020;2022-08-19T11:00:00;28.30;99.90
31639;DHT22;18248;51.522;7.020;2022-08-19T11:02:58;28.50;99.90
31639;DHT22;18248;51.522;7.020;2022-08-19T11:05:59;28.90;99.90
31639;DHT22;18248;51.522;7.020;2022-08-19T11:08:58;29.10;99.90
31639;DHT22;18248;51.522;7.020;2022-08-19T11:11:58;28.90;99.90
31639;DHT22;18248;51.522;7.020;2022-08-19T11:14:56;28.60;99.90
31639;DHT22;18248;51.522;7.020;2022-08-19T11:17:55;28.50;99.90
31639;DHT22;18248;51.522;7.020;2022-08-19T11:20:54;28.20;99.90
31639;DHT22;18248;51.522;7.020;2022-08-19T11:23:56;28.30;99.90
31639;DHT22;18248;51.522;7.020;2022-08-19T11:27:02;28.20;99.90
31639;DHT22;18248;51.522;7.020;2022-08-19T11:30:04;28.20;99.90
31639;DHT22;18248;51.522;7.020;2022-08-19T11:33:03;28.30;99.90
31639;DHT22;18248;51.522;7.020;2022-08-19T11:36:01;28.50;99.90
31639;DHT22;18248;51.522;7.020;2022-08-19T11:39:02;28.70;99.90
31639;DHT22;18248;51.522;7.020;2022-08-19T11:42:01;29.00;99.90
31639;DHT22;18248;51.522;7.020;2022-08-19T11:45:01;29.30;99.90
31639;DHT22;18248;51.522;7.020;2022-08-19T11:48:02;29.50;99.90
31639;DHT22;18248;51.522;7.020;2022-08-19T11:51:08;29.20;99.90
31639;DHT22;18248;51.522;7.020;2022-08-19T11:54:07;29.00;99.30
31639;DHT22;18248;51.522;7.020;2022-08-19T11:57:06;28.80;99.90
31639;DHT22;18248;51.522;7.020;2022-08-19T12:00:06;28.90;99.90
31639;DHT22;18248;51.522;7.020;2022-08-19T12:03:05;29.10;99.80
31639;DHT22;18248;51.522;7.020;2022-08-19T12:06:11;29.10;98.90
31639;DHT22;18248;51.522;7.020;2022-08-19T12:09:11;28.90;98.60
31639;DHT22;18248;51.522;7.020;2022-08-19T12:12:12;29.00;99.30
31639;DHT22;18248;51.522;7.020;2022-08-19T12:15:12;29.30;99.00
31639;DHT22;18248;51.522;7.020;2022-08-19T12:18:12;29.50;98.00
31639;DHT22;18248;51.522;7.020;2022-08-19T12:21:14;29.80;97.50
31639;DHT22;18248;51.522;7.020;2022-08-19T12:24:13;29.80;96.70
31639;DHT22;18248;51.522;7.020;2022-08-19T12:27:12;29.70;96.20
31639;DHT22;18248;51.522;7.020;2022-08-19T12:30:12;29.50;96.30
31639;DHT22;18248;51.522;7.020;2022-08-19T12:33:10;29.60;96.40
31639;DHT22;18248;51.522;7.020;2022-08-19T12:36:12;29.60;96.00
31639;DHT22;18248;51.522;7.020;2022-08-19T12:39:11;29.70;95.80
31639;DHT22;18248;51.522;7.020;2022-08-19T12:42:11;29.90;95.50
31639;DHT22;18248;51.522;7.020;2022-08-19T12:45:12;29.70;94.70
31639;DHT22;18248;51.522;7.020;2022-08-19T12:48:11;29.60;94.80
31639;DHT22;18248;51.522;7.020;2022-08-19T12:51:15;29.60;95.10
31639;DHT22;18248;51.522;7.020;2022-08-19T12:54:13;29.90;94.00
31639;DHT22;18248;51.522;7.020;2022-08-19T12:57:13;30.00;92.70
31639;DHT22;18248;51.522;7.020;2022-08-19T13:00:14;29.80;93.70
31639;DHT22;18248;51.522;7.020;2022-08-19T13:03:13;29.80;93.10
31639;DHT22;18248;51.522;7.020;2022-08-19T13:06:12;29.60;93.00
31639;DHT22;18248;51.522;7.020;2022-08-19T13:09:11;29.60;93.10
31639;DHT22;18248;51.522;7.020;2022-08-19T13:12:09;29.70;92.50
31639;DHT22;18248;51.522;7.020;2022-08-19T13:15:11;29.90;92.40
31639;DHT22;18248;51.522;7.020;2022-08-19T13:18:10;30.20;90.90
31639;DHT22;18248;51.522;7.020;2022-08-19T13:21:10;30.20;90.00
31639;DHT22;18248;51.522;7.020;2022-08-19T13:24:11;30.20;90.40
31639;DHT22;18248;51.522;7.020;2022-08-19T13:27:11;30.30;90.50
31639;DHT22;18248;51.522;7.020;2022-08-19T13:30:12;30.40;90.10
31639;DHT22;18248;51.522;7.020;2022-08-19T13:33:29;30.60;89.60
31639;DHT22;18248;51.522;7.020;2022-08-19T13:36:28;30.40;88.60
31639;DHT22;18248;51.522;7.020;2022-08-19T13:39:29;30.40;88.40
31639;DHT22;18248;51.522;7.020;2022-08-19T13:42:28;30.60;87.60
31639;DHT22;18248;51.522;7.020;2022-08-19T13:45:29;30.70;86.20
31639;DHT22;18248;51.522;7.020;2022-08-19T13:48:28;30.80;83.70
31639;DHT22;18248;51.522;7.020;2022-08-19T13:51:27;30.80;84.30
31639;DHT22;18248;51.522;7.020;2022-08-19T13:54:25;31.00;82.20
31639;DHT22;18248;51.522;7.020;2022-08-19T13:57:25;31.10;82.10
31639;DHT22;18248;51.522;7.020;2022-08-19T14:00:25;31.20;81.10
31639;DHT22;18248;51.522;7.020;2022-08-19T14:03:25;31.30;81.20
31639;DHT22;18248;51.522;7.020;2022-08-19T14:06:23;31.10;81.50
31639;DHT22;18248;51.522;7.020;2022-08-19T14:09:23;30.90;81.20
31639;DHT22;18248;51.522;7.020;2022-08-19T14:12:22;30.90;81.30
31639;DHT22;18248;51.522;7.020;2022-08-19T14:15:22;31.10;80.50
31639;DHT22;18248;51.522;7.020;2022-08-19T14:18:21;31.00;79.30
31639;DHT22;18248;51.522;7.020;2022-08-19T14:21:23;31.10;79.20
31639;DHT22;18248;51.522;7.020;2022-08-19T14:24:21;31.00;78.90
31639;DHT22;18248;51.522;7.020;2022-08-19T14:27:20;31.10;79.30
31639;DHT22;18248;51.522;7.020;2022-08-19T14:30:22;31.20;78.80
31639;DHT22;18248;51.522;7.020;2022-08-19T14:33:23;31.30;77.10
31639;DHT22;18248;51.522;7.020;2022-08-19T14:36:22;31.20;77.60
31639;DHT22;18248;51.522;7.020;2022-08-19T14:39:20;31.20;77.20
31639;DHT22;18248;51.522;7.020;2022-08-19T14:42:19;31.40;77.10
31639;DHT22;18248;51.522;7.020;2022-08-19T14:45:18;31.30;76.40
31639;DHT22;18248;51.522;7.020;2022-08-19T14:48:16;31.20;77.30
31639;DHT22;18248;51.522;7.020;2022-08-19T14:51:17;31.00;78.10
31639;DHT22;18248;51.522;7.020;2022-08-19T14:54:16;30.90;79.60
31639;DHT22;18248;51.522;7.020;2022-08-19T14:57:15;30.70;79.30
31639;DHT22;18248;51.522;7.020;2022-08-19T15:00:14;30.50;80.70
31639;DHT22;18248;51.522;7.020;2022-08-19T15:03:13;30.40;81.00
31639;DHT22;18248;51.522;7.020;2022-08-19T15:06:12;30.20;81.80
31639;DHT22;18248;51.522;7.020;2022-08-19T15:09:10;30.00;82.70
31639;DHT22;18248;51.522;7.020;2022-08-19T15:12:09;29.90;83.40
31639;DHT22;18248;51.522;7.020;2022-08-19T15:15:11;29.90;83.70
31639;DHT22;18248;51.522;7.020;2022-08-19T15:18:10;29.90;84.00
31639;DHT22;18248;51.522;7.020;2022-08-19T15:21:11;29.90;83.70
31639;DHT22;18248;51.522;7.020;2022-08-19T15:24:11;29.80;84.00
31639;DHT22;18248;51.522;7.020;2022-08-19T15:27:09;29.70;83.80
31639;DHT22;18248;51.522;7.020;2022-08-19T15:30:10;29.70;84.00
31639;DHT22;18248;51.522;7.020;2022-08-19T15:33:10;29.70;83.20
31639;DHT22;18248;51.522;7.020;2022-08-19T15:36:12;29.90;83.50
31639;DHT22;18248;51.522;7.020;2022-08-19T15:39:10;30.10;82.70
31639;DHT22;18248;51.522;7.020;2022-08-19T15:42:09;30.10;82.30
31639;DHT22;18248;51.522;7.020;2022-08-19T15:45:10;30.00;82.50
31639;DHT22;18248;51.522;7.020;2022-08-19T15:48:09;29.80;81.50
31639;DHT22;18248;51.522;7.020;2022-08-19T15:51:07;29.70;82.10
31639;DHT22;18248;51.522;7.020;2022-08-19T15:54:11;29.70;82.40
31639;DHT22;18248;51.522;7.020;2022-08-19T15:57:10;29.60;82.60
31639;DHT22;18248;51.522;7.020;2022-08-19T16:00:20;29.50;82.90
31639;DHT22;18248;51.522;7.020;2022-08-19T16:03:37;29.40;83.20
31639;DHT22;18248;51.522;7.020;2022-08-19T16:06:57;29.20;82.80
31639;DHT22;18248;51.522;7.020;2022-08-19T16:09:55;29.10;83.10
31639;DHT22;18248;51.522;7.020;2022-08-19T16:12:56;28.80;83.00
31639;DHT22;18248;51.522;7.020;2022-08-19T16:15:55;28.70;83.00
31639;DHT22;18248;51.522;7.020;2022-08-19T16:18:56;28.70;84.00
31639;DHT22;18248;51.522;7.020;2022-08-19T16:21:55;28.70;83.80
31639;DHT22;18248;51.522;7.020;2022-08-19T16:24:54;28.90;84.30
31639;DHT22;18248;51.522;7.020;2022-08-19T16:27:53;29.00;84.00
31639;DHT22;18248;51.522;7.020;2022-08-19T16:30:53;29.10;83.70
31639;DHT22;18248;51.522;7.020;2022-08-19T16:33:52;29.00;83.90
31639;DHT22;18248;51.522;7.020;2022-08-19T16:36:50;28.90;83.90
31639;DHT22;18248;51.522;7.020;2022-08-19T16:39:49;28.80;84.40
31639;DHT22;18248;51.522;7.020;2022-08-19T16:42:48;28.70;83.90
31639;DHT22;18248;51.522;7.020;2022-08-19T16:45:51;28.60;84.30
31639;DHT22;18248;51.522;7.020;2022-08-19T16:48:50;28.50;84.80
31639;DHT22;18248;51.522;7.020;2022-08-19T16:51:49;28.50;85.20
31639;DHT22;18248;51.522;7.020;2022-08-19T16:54:47;28.40;85.60
31639;DHT22;18248;51.522;7.020;2022-08-19T16:57:47;28.30;86.00
31639;DHT22;18248;51.522;7.020;2022-08-19T17:00:46;28.40;86.50
31639;DHT22;18248;51.522;7.020;2022-08-19T17:03:47;28.40;87.80
31639;DHT22;18248;51.522;7.020;2022-08-19T17:06:47;28.30;87.10
31639;DHT22;18248;51.522;7.020;2022-08-19T17:09:46;28.20;87.70
31639;DHT22;18248;51.522;7.020;2022-08-19T17:12:44;28.10;88.10
31639;DHT22;18248;51.522;7.020;2022-08-19T17:15:43;28.10;88.50
31639;DHT22;18248;51.522;7.020;2022-08-19T17:18:42;28.00;88.60
31639;DHT22;18248;51.522;7.020;2022-08-19T17:21:41;27.90;89.10
31639;DHT22;18248;51.522;7.020;2022-08-19T17:24:41;27.80;89.30
31639;DHT22;18248;51.522;7.020;2022-08-19T17:27:40;27.80;89.60
31639;DHT22;18248;51.522;7.020;2022-08-19T17:30:38;27.90;89.80
31639;DHT22;18248;51.522;7.020;2022-08-19T17:33:38;28.00;89.70
31639;DHT22;18248;51.522;7.020;2022-08-19T17:36:36;28.00;89.90
31639;DHT22;18248;51.522;7.020;2022-08-19T17:39:35;27.80;89.40
31639;DHT22;18248;51.522;7.020;2022-08-19T17:42:36;27.70;89.90
31639;DHT22;18248;51.522;7.020;2022-08-19T17:45:40;27.70;90.10
31639;DHT22;18248;51.522;7.020;2022-08-19T17:48:42;27.60;90.30
31639;DHT22;18248;51.522;7.020;2022-08-19T17:51:43;27.50;90.50
31639;DHT22;18248;51.522;7.020;2022-08-19T17:54:42;27.50;90.60
31639;DHT22;18248;51.522;7.020;2022-08-19T17:57:41;27.50;90.40
31639;DHT22;18248;51.522;7.020;2022-08-19T18:00:41;27.40;90.40
31639;DHT22;18248;51.522;7.020;2022-08-19T18:03:40;27.30;90.20
31639;DHT22;18248;51.522;7.020;2022-08-19T18:06:39;27.30;90.40
31639;DHT22;18248;51.522;7.020;2022-08-19T18:09:39;27.20;90.50
31639;DHT22;18248;51.522;7.020;2022-08-19T18:12:38;27.20;90.80
31639;DHT22;18248;51.522;7.020;2022-08-19T18:15:37;27.10;91.20
31639;DHT22;18248;51.522;7.020;2022-08-19T18:18:40;27.00;91.90
31639;DHT22;18248;51.522;7.020;2022-08-19T18:21:39;26.90;92.90
31639;DHT22;18248;51.522;7.020;2022-08-19T18:24:40;26.70;94.00
31639;DHT22;18248;51.522;7.020;2022-08-19T18:27:39;26.60;93.70
31639;DHT22;18248;51.522;7.020;2022-08-19T18:30:38;26.50;94.10
31639;DHT22;18248;51.522;7.020;2022-08-19T18:33:37;26.50;94.60
31639;DHT22;18248;51.522;7.020;2022-08-19T18:36:36;26.50;95.10
31639;DHT22;18248;51.522;7.020;2022-08-19T18:39:35;26.50;95.80
31639;DHT22;18248;51.522;7.020;2022-08-19T18:42:52;26.50;96.50
31639;DHT22;18248;51.522;7.020;2022-08-19T18:46:10;26.40;97.10
31639;DHT22;18248;51.522;7.020;2022-08-19T18:49:31;26.30;98.10
31639;DHT22;18248;51.522;7.020;2022-08-19T18:52:29;26.20;99.30
31639;DHT22;18248;51.522;7.020;2022-08-19T18:55:30;26.10;99.60
31639;DHT22;18248;51.522;7.020;2022-08-19T18:58:30;26.20;99.90
31639;DHT22;18248;51.522;7.020;2022-08-19T19:01:34;26.10;99.90
31639;DHT22;18248;51.522;7.020;2022-08-19T19:04:37;26.10;99.90
31639;DHT22;18248;51.522;7.020;2022-08-19T19:07:36;26.00;99.90
31639;DHT22;18248;51.522;7.020;2022-08-19T19:10:34;26.00;99.90